FWKI/LLW METAR and TAF weather

Enter ICAO airport designator
Station Type Date Time Source
FWKI METAR 2024/02/26 16:00 UTC NOAA

FWKI 261600Z 08007KT 9999 FEW022CB SCT025 BKN080 21/20 Q1016 NOSIG


Station Type Date Time Source
FWKI Decoded METAR 2024/02/26 16:00 UTC NOAA

Lilongwe International Airport, Malawi (FWKI) 13-47S 033-46E 1229M
Feb 26, 2024 - 11:00 AM EST / 2024.02.26 1600 UTC
Wind: from the E (080 degrees) at 8 MPH (7 KT):0
Visibility: greater than 7 mile(s):0
Sky conditions: mostly cloudy
Weather: Cumulonimbus clouds observed
Temperature: 69 F (21 C)
Dew Point: 68 F (20 C)
Relative Humidity: 94%
Pressure (altimeter): 30.00 in. Hg (1016 hPa)
ob: FWKI 261600Z 08007KT 9999 FEW022CB SCT025 BKN080 21/20 Q1016 NOSIG
cycle: 16

Station Type Date Time Source
FWKI TAF 2024/02/26 18:42 UTC NOAA